sensor_id;sensor_type;location;lat;lon;timestamp;pressure;altitude;pressure_sealevel;temperature;humidity
11440;BME280;5776;51.814;4.510;2023-04-28T00:00:51;101396.50;;;9.73;84.08
11440;BME280;5776;51.814;4.510;2023-04-28T00:03:18;101389.44;;;9.72;84.74
11440;BME280;5776;51.814;4.510;2023-04-28T00:05:44;101389.19;;;9.73;85.04
11440;BME280;5776;51.814;4.510;2023-04-28T00:08:11;101387.84;;;9.71;84.52
11440;BME280;5776;51.814;4.510;2023-04-28T00:10:37;101379.94;;;9.69;84.15
11440;BME280;5776;51.814;4.510;2023-04-28T00:13:03;101370.19;;;9.68;84.71
11440;BME280;5776;51.814;4.510;2023-04-28T00:15:29;101375.88;;;9.67;84.23
11440;BME280;5776;51.814;4.510;2023-04-28T00:17:55;101372.91;;;9.68;84.90
11440;BME280;5776;51.814;4.510;2023-04-28T00:20:20;101363.13;;;9.67;83.91
11440;BME280;5776;51.814;4.510;2023-04-28T00:22:46;101356.34;;;9.65;84.53
11440;BME280;5776;51.814;4.510;2023-04-28T00:25:14;101354.72;;;9.64;83.99
11440;BME280;5776;51.814;4.510;2023-04-28T00:27:40;101351.22;;;9.63;84.15
11440;BME280;5776;51.814;4.510;2023-04-28T00:30:06;101339.25;;;9.64;83.48
11440;BME280;5776;51.814;4.510;2023-04-28T00:32:32;101339.25;;;9.64;84.26
11440;BME280;5776;51.814;4.510;2023-04-28T00:34:58;101333.28;;;9.62;83.13
11440;BME280;5776;51.814;4.510;2023-04-28T00:37:24;101336.00;;;9.62;83.56
11440;BME280;5776;51.814;4.510;2023-04-28T00:39:56;101314.31;;;9.62;83.92
11440;BME280;5776;51.814;4.510;2023-04-28T00:42:22;101311.59;;;9.62;83.33
11440;BME280;5776;51.814;4.510;2023-04-28T00:44:48;101314.06;;;9.64;83.66
11440;BME280;5776;51.814;4.510;2023-04-28T00:47:16;101308.88;;;9.62;82.88
11440;BME280;5776;51.814;4.510;2023-04-28T00:49:43;101307.25;;;9.61;82.90
11440;BME280;5776;51.814;4.510;2023-04-28T00:52:09;101301.56;;;9.63;83.81
11440;BME280;5776;51.814;4.510;2023-04-28T00:54:36;101299.69;;;9.63;83.32
11440;BME280;5776;51.814;4.510;2023-04-28T00:57:02;101295.06;;;9.64;83.19
11440;BME280;5776;51.814;4.510;2023-04-28T00:59:29;101289.63;;;9.64;83.68
11440;BME280;5776;51.814;4.510;2023-04-28T01:01:56;101286.13;;;9.63;82.74
11440;BME280;5776;51.814;4.510;2023-04-28T01:04:22;101292.91;;;9.66;83.00
11440;BME280;5776;51.814;4.510;2023-04-28T01:06:50;101283.66;;;9.62;83.50
11440;BME280;5776;51.814;4.510;2023-04-28T01:09:17;101273.06;;;9.60;83.67
11440;BME280;5776;51.814;4.510;2023-04-28T01:11:43;101276.34;;;9.62;82.93
11440;BME280;5776;51.814;4.510;2023-04-28T01:14:08;101271.47;;;9.59;83.17
11440;BME280;5776;51.814;4.510;2023-04-28T01:16:35;101279.03;;;9.57;84.02
11440;BME280;5776;51.814;4.510;2023-04-28T01:19:06;101280.94;;;9.57;83.02
11440;BME280;5776;51.814;4.510;2023-04-28T01:21:33;101273.63;;;9.57;83.30
11440;BME280;5776;51.814;4.510;2023-04-28T01:24:00;101280.69;;;9.58;83.74
11440;BME280;5776;51.814;4.510;2023-04-28T01:26:26;101274.97;;;9.55;83.84
11440;BME280;5776;51.814;4.510;2023-04-28T01:28:52;101267.13;;;9.53;83.60
11440;BME280;5776;51.814;4.510;2023-04-28T01:31:17;101261.97;;;9.51;83.51
11440;BME280;5776;51.814;4.510;2023-04-28T01:33:43;101249.75;;;9.49;84.65
11440;BME280;5776;51.814;4.510;2023-04-28T01:36:09;101239.47;;;9.51;84.62
11440;BME280;5776;51.814;4.510;2023-04-28T01:38:35;101237.28;;;9.48;84.93
11440;BME280;5776;51.814;4.510;2023-04-28T01:41:01;101244.34;;;9.49;84.63
11440;BME280;5776;51.814;4.510;2023-04-28T01:43:28;101250.03;;;9.47;83.78
11440;BME280;5776;51.814;4.510;2023-04-28T01:45:54;101244.34;;;9.49;84.04
11440;BME280;5776;51.814;4.510;2023-04-28T01:48:20;101231.84;;;9.48;85.00
11440;BME280;5776;51.814;4.510;2023-04-28T01:50:46;101224.00;;;9.46;84.59
11440;BME280;5776;51.814;4.510;2023-04-28T01:53:12;101221.56;;;9.45;83.78
11440;BME280;5776;51.814;4.510;2023-04-28T01:55:39;101215.31;;;9.44;85.11
11440;BME280;5776;51.814;4.510;2023-04-28T01:58:05;101226.97;;;9.45;85.04
11440;BME280;5776;51.814;4.510;2023-04-28T02:00:31;101223.19;;;9.46;84.43
11440;BME280;5776;51.814;4.510;2023-04-28T02:02:57;101219.94;;;9.44;84.71
11440;BME280;5776;51.814;4.510;2023-04-28T02:05:24;101211.81;;;9.44;85.51
11440;BME280;5776;51.814;4.510;2023-04-28T02:07:50;101204.75;;;9.43;85.28
11440;BME280;5776;51.814;4.510;2023-04-28T02:10:15;101205.84;;;9.47;85.37
11440;BME280;5776;51.814;4.510;2023-04-28T02:12:41;101202.03;;;9.43;85.30
11440;BME280;5776;51.814;4.510;2023-04-28T02:15:08;101195.81;;;9.42;86.33
11440;BME280;5776;51.814;4.510;2023-04-28T02:17:34;101194.19;;;9.41;86.13
11440;BME280;5776;51.814;4.510;2023-04-28T02:20:00;101194.44;;;9.40;86.12
11440;BME280;5776;51.814;4.510;2023-04-28T02:22:26;101190.66;;;9.41;86.23
11440;BME280;5776;51.814;4.510;2023-04-28T02:24:52;101190.66;;;9.41;86.03
11440;BME280;5776;51.814;4.510;2023-04-28T02:27:18;101187.97;;;9.41;86.57
11440;BME280;5776;51.814;4.510;2023-04-28T02:29:44;101182.25;;;9.42;86.08
11440;BME280;5776;51.814;4.510;2023-04-28T02:32:09;101179.81;;;9.41;86.73
11440;BME280;5776;51.814;4.510;2023-04-28T02:34:36;101180.34;;;9.38;86.92
11440;BME280;5776;51.814;4.510;2023-04-28T02:37:02;101169.25;;;9.34;86.63
11440;BME280;5776;51.814;4.510;2023-04-28T02:39:28;101170.59;;;9.37;87.82
11440;BME280;5776;51.814;4.510;2023-04-28T02:41:55;101172.75;;;9.35;86.79
11440;BME280;5776;51.814;4.510;2023-04-28T02:44:22;101171.16;;;9.34;87.88
11440;BME280;5776;51.814;4.510;2023-04-28T02:46:48;101182.00;;;9.34;87.40
11440;BME280;5776;51.814;4.510;2023-04-28T02:49:14;101182.00;;;9.34;88.27
11440;BME280;5776;51.814;4.510;2023-04-28T02:51:40;101177.13;;;9.30;88.01
11440;BME280;5776;51.814;4.510;2023-04-28T02:54:06;101178.72;;;9.32;87.79
11440;BME280;5776;51.814;4.510;2023-04-28T02:56:33;101180.34;;;9.33;87.87
11440;BME280;5776;51.814;4.510;2023-04-28T02:58:59;101177.63;;;9.33;88.14
11440;BME280;5776;51.814;4.510;2023-04-28T03:01:25;101168.69;;;9.32;87.61
11440;BME280;5776;51.814;4.510;2023-04-28T03:03:51;101170.59;;;9.32;87.63
11440;BME280;5776;51.814;4.510;2023-04-28T03:06:16;101170.06;;;9.29;88.46
11440;BME280;5776;51.814;4.510;2023-04-28T03:08:42;101172.50;;;9.31;88.32
11440;BME280;5776;51.814;4.510;2023-04-28T03:11:08;101162.72;;;9.30;88.71
11440;BME280;5776;51.814;4.510;2023-04-28T03:13:35;101169.00;;;9.30;88.59
11440;BME280;5776;51.814;4.510;2023-04-28T03:16:02;101154.59;;;9.30;88.84
11440;BME280;5776;51.814;4.510;2023-04-28T03:18:28;101158.94;;;9.31;88.71
11440;BME280;5776;51.814;4.510;2023-04-28T03:20:53;101156.25;;;9.31;88.91
11440;BME280;5776;51.814;4.510;2023-04-28T03:23:19;101150.28;;;9.29;88.45
11440;BME280;5776;51.814;4.510;2023-04-28T03:25:46;101150.00;;;9.30;89.25
11440;BME280;5776;51.814;4.510;2023-04-28T03:28:11;101146.47;;;9.30;89.17
11440;BME280;5776;51.814;4.510;2023-04-28T03:30:37;101142.13;;;9.29;89.15
11440;BME280;5776;51.814;4.510;2023-04-28T03:33:03;101148.38;;;9.29;90.13
11440;BME280;5776;51.814;4.510;2023-04-28T03:35:29;101146.75;;;9.28;90.07
11440;BME280;5776;51.814;4.510;2023-04-28T03:37:55;101138.88;;;9.27;90.53
11440;BME280;5776;51.814;4.510;2023-04-28T03:40:21;101134.28;;;9.27;90.87
11440;BME280;5776;51.814;4.510;2023-04-28T03:42:47;101135.63;;;9.30;90.52
11440;BME280;5776;51.814;4.510;2023-04-28T03:45:13;101126.69;;;9.29;90.80
11440;BME280;5776;51.814;4.510;2023-04-28T03:47:39;101131.31;;;9.29;90.34
11440;BME280;5776;51.814;4.510;2023-04-28T03:50:05;101124.53;;;9.26;90.58
11440;BME280;5776;51.814;4.510;2023-04-28T03:52:31;101128.03;;;9.27;90.70
11440;BME280;5776;51.814;4.510;2023-04-28T03:54:57;101126.44;;;9.26;90.81
11440;BME280;5776;51.814;4.510;2023-04-28T03:57:23;101127.25;;;9.26;91.48
11440;BME280;5776;51.814;4.510;2023-04-28T03:59:49;101116.94;;;9.28;91.78
11440;BME280;5776;51.814;4.510;2023-04-28T04:02:16;101103.94;;;9.25;92.24
11440;BME280;5776;51.814;4.510;2023-04-28T04:04:42;101114.78;;;9.25;92.39
11440;BME280;5776;51.814;4.510;2023-04-28T04:07:08;101113.69;;;9.26;91.94
11440;BME280;5776;51.814;4.510;2023-04-28T04:09:34;101098.53;;;9.25;92.51
11440;BME280;5776;51.814;4.510;2023-04-28T04:12:00;101089.84;;;9.23;92.57
11440;BME280;5776;51.814;4.510;2023-04-28T04:14:26;101088.19;;;9.22;92.90
11440;BME280;5776;51.814;4.510;2023-04-28T04:16:51;101086.59;;;9.21;93.24
11440;BME280;5776;51.814;4.510;2023-04-28T04:19:18;101085.78;;;9.21;94.47
11440;BME280;5776;51.814;4.510;2023-04-28T04:21:44;101082.25;;;9.20;94.82
11440;BME280;5776;51.814;4.510;2023-04-28T04:24:10;101088.75;;;9.19;95.57
11440;BME280;5776;51.814;4.510;2023-04-28T04:26:36;101081.72;;;9.18;96.27
11440;BME280;5776;51.814;4.510;2023-04-28T04:29:01;101077.38;;;9.17;97.26
11440;BME280;5776;51.814;4.510;2023-04-28T04:31:27;101076.31;;;9.18;97.19
11440;BME280;5776;51.814;4.510;2023-04-28T04:33:53;101066.81;;;9.16;99.00
11440;BME280;5776;51.814;4.510;2023-04-28T04:36:19;101084.44;;;9.13;99.03
11440;BME280;5776;51.814;4.510;2023-04-28T04:38:45;101081.72;;;9.18;99.64
11440;BME280;5776;51.814;4.510;2023-04-28T04:41:11;101083.34;;;9.19;100.00
11440;BME280;5776;51.814;4.510;2023-04-28T04:43:37;101074.41;;;9.14;100.00
11440;BME280;5776;51.814;4.510;2023-04-28T04:46:03;101066.81;;;9.11;100.00
11440;BME280;5776;51.814;4.510;2023-04-28T04:48:29;101067.09;;;9.09;100.00
11440;BME280;5776;51.814;4.510;2023-04-28T04:50:55;101059.75;;;9.09;100.00
11440;BME280;5776;51.814;4.510;2023-04-28T04:53:21;101045.41;;;9.14;100.00
11440;BME280;5776;51.814;4.510;2023-04-28T04:55:46;101048.09;;;9.14;100.00
11440;BME280;5776;51.814;4.510;2023-04-28T04:58:12;101050.03;;;9.08;100.00
11440;BME280;5776;51.814;4.510;2023-04-28T05:00:38;101047.03;;;9.10;100.00
11440;BME280;5776;51.814;4.510;2023-04-28T05:03:04;101054.63;;;9.08;100.00
11440;BME280;5776;51.814;4.510;2023-04-28T05:05:31;101058.16;;;9.08;100.00
11440;BME280;5776;51.814;4.510;2023-04-28T05:07:57;101068.69;;;9.05;100.00
11440;BME280;5776;51.814;4.510;2023-04-28T05:10:23;101070.06;;;9.07;100.00
11440;BME280;5776;51.814;4.510;2023-04-28T05:12:49;101064.38;;;9.09;100.00
11440;BME280;5776;51.814;4.510;2023-04-28T05:15:15;101056.25;;;9.09;100.00
11440;BME280;5776;51.814;4.510;2023-04-28T05:17:41;101057.34;;;9.08;100.00
11440;BME280;5776;51.814;4.510;2023-04-28T05:20:07;101061.41;;;9.11;100.00
11440;BME280;5776;51.814;4.510;2023-04-28T05:22:34;101067.63;;;9.11;100.00
11440;BME280;5776;51.814;4.510;2023-04-28T05:24:59;101061.91;;;9.18;100.00
11440;BME280;5776;51.814;4.510;2023-04-28T05:27:25;101067.63;;;9.16;100.00
11440;BME280;5776;51.814;4.510;2023-04-28T05:29:51;101069.25;;;9.17;100.00
11440;BME280;5776;51.814;4.510;2023-04-28T05:32:17;101068.97;;;9.19;100.00
11440;BME280;5776;51.814;4.510;2023-04-28T05:34:43;101076.00;;;9.25;100.00
11440;BME280;5776;51.814;4.510;2023-04-28T05:37:09;101074.09;;;9.41;100.00
11440;BME280;5776;51.814;4.510;2023-04-28T05:39:35;101075.44;;;9.48;100.00
11440;BME280;5776;51.814;4.510;2023-04-28T05:42:01;101087.06;;;9.54;100.00
11440;BME280;5776;51.814;4.510;2023-04-28T05:44:30;101076.78;;;9.56;98.58
11440;BME280;5776;51.814;4.510;2023-04-28T05:46:55;101076.22;;;9.59;98.14
11440;BME280;5776;51.814;4.510;2023-04-28T05:49:21;101077.81;;;9.60;97.73
11440;BME280;5776;51.814;4.510;2023-04-28T05:51:47;101077.03;;;9.60;97.16
11440;BME280;5776;51.814;4.510;2023-04-28T05:54:13;101071.59;;;9.60;97.24
11440;BME280;5776;51.814;4.510;2023-04-28T05:56:39;101066.97;;;9.60;96.05
11440;BME280;5776;51.814;4.510;2023-04-28T05:59:05;101066.19;;;9.60;96.58
11440;BME280;5776;51.814;4.510;2023-04-28T06:01:31;101061.56;;;9.60;95.57
11440;BME280;5776;51.814;4.510;2023-04-28T06:03:57;101062.41;;;9.61;95.15
11440;BME280;5776;51.814;4.510;2023-04-28T06:06:24;101066.19;;;9.60;95.33
11440;BME280;5776;51.814;4.510;2023-04-28T06:08:50;101065.91;;;9.61;95.61
11440;BME280;5776;51.814;4.510;2023-04-28T06:11:16;101066.97;;;9.60;94.96
11440;BME280;5776;51.814;4.510;2023-04-28T06:13:48;101059.38;;;9.62;94.68
11440;BME280;5776;51.814;4.510;2023-04-28T06:16:15;101059.38;;;9.62;94.99
11440;BME280;5776;51.814;4.510;2023-04-28T06:18:42;101063.44;;;9.65;94.67
11440;BME280;5776;51.814;4.510;2023-04-28T06:21:08;101068.06;;;9.64;94.59
11440;BME280;5776;51.814;4.510;2023-04-28T06:23:35;101060.50;;;9.56;100.00
11440;BME280;5776;51.814;4.510;2023-04-28T06:26:05;101053.75;;;9.43;100.00
11440;BME280;5776;51.814;4.510;2023-04-28T06:28:31;101049.72;;;9.36;100.00
11440;BME280;5776;51.814;4.510;2023-04-28T06:30:57;101054.84;;;9.32;100.00
11440;BME280;5776;51.814;4.510;2023-04-28T06:33:24;101060.56;;;9.30;100.00
11440;BME280;5776;51.814;4.510;2023-04-28T06:35:51;101058.91;;;9.35;100.00
11440;BME280;5776;51.814;4.510;2023-04-28T06:38:18;101057.00;;;9.35;100.00
11440;BME280;5776;51.814;4.510;2023-04-28T06:40:44;101051.06;;;9.33;100.00
11440;BME280;5776;51.814;4.510;2023-04-28T06:43:10;101055.66;;;9.33;100.00
11440;BME280;5776;51.814;4.510;2023-04-28T06:45:36;101059.47;;;9.32;100.00
11440;BME280;5776;51.814;4.510;2023-04-28T06:48:03;101058.66;;;9.31;100.00
11440;BME280;5776;51.814;4.510;2023-04-28T06:50:29;101057.03;;;9.30;100.00
11440;BME280;5776;51.814;4.510;2023-04-28T06:52:55;101057.31;;;9.28;100.00
11440;BME280;5776;51.814;4.510;2023-04-28T06:55:21;101054.59;;;9.28;100.00
11440;BME280;5776;51.814;4.510;2023-04-28T06:57:47;101055.16;;;9.25;100.00
11440;BME280;5776;51.814;4.510;2023-04-28T07:00:12;101053.50;;;9.24;100.00
11440;BME280;5776;51.814;4.510;2023-04-28T07:02:39;101055.16;;;9.25;100.00
11440;BME280;5776;51.814;4.510;2023-04-28T07:05:05;101057.56;;;9.27;100.00
11440;BME280;5776;51.814;4.510;2023-04-28T07:07:31;101054.59;;;9.28;100.00
11440;BME280;5776;51.814;4.510;2023-04-28T07:09:57;101057.56;;;9.27;100.00
11440;BME280;5776;51.814;4.510;2023-04-28T07:12:23;101052.13;;;9.37;100.00
11440;BME280;5776;51.814;4.510;2023-04-28T07:14:49;101054.03;;;9.42;100.00
11440;BME280;5776;51.814;4.510;2023-04-28T07:17:16;101059.69;;;9.45;100.00
11440;BME280;5776;51.814;4.510;2023-04-28T07:19:42;101056.16;;;9.50;100.00
11440;BME280;5776;51.814;4.510;2023-04-28T07:22:07;101048.03;;;9.45;100.00
11440;BME280;5776;51.814;4.510;2023-04-28T07:24:33;101051.84;;;9.44;100.00
11440;BME280;5776;51.814;4.510;2023-04-28T07:26:59;101049.94;;;9.49;100.00
11440;BME280;5776;51.814;4.510;2023-04-28T07:29:26;101047.50;;;9.48;100.00
11440;BME280;5776;51.814;4.510;2023-04-28T07:31:53;101046.44;;;9.44;100.00
11440;BME280;5776;51.814;4.510;2023-04-28T07:34:19;101049.94;;;9.44;100.00
11440;BME280;5776;51.814;4.510;2023-04-28T07:36:45;101049.94;;;9.44;100.00
11440;BME280;5776;51.814;4.510;2023-04-28T07:39:11;101052.66;;;9.44;100.00
11440;BME280;5776;51.814;4.510;2023-04-28T07:41:37;101050.50;;;9.46;100.00
11440;BME280;5776;51.814;4.510;2023-04-28T07:44:04;101054.56;;;9.49;100.00
11440;BME280;5776;51.814;4.510;2023-04-28T07:46:31;101055.91;;;9.51;100.00
11440;BME280;5776;51.814;4.510;2023-04-28T07:48:57;101056.44;;;9.54;100.00
11440;BME280;5776;51.814;4.510;2023-04-28T07:51:23;101050.72;;;9.55;100.00
11440;BME280;5776;51.814;4.510;2023-04-28T07:53:49;101051.25;;;9.57;100.00
11440;BME280;5776;51.814;4.510;2023-04-28T07:56:15;101056.97;;;9.61;100.00
11440;BME280;5776;51.814;4.510;2023-04-28T07:58:41;101053.41;;;9.65;100.00
11440;BME280;5776;51.814;4.510;2023-04-28T08:01:07;101047.44;;;9.68;100.00
11440;BME280;5776;51.814;4.510;2023-04-28T08:03:33;101045.25;;;9.70;100.00
11440;BME280;5776;51.814;4.510;2023-04-28T08:05:59;101051.75;;;9.74;100.00
11440;BME280;5776;51.814;4.510;2023-04-28T08:08:25;101050.38;;;9.77;100.00
11440;BME280;5776;51.814;4.510;2023-04-28T08:10:51;101055.53;;;9.79;100.00
11440;BME280;5776;51.814;4.510;2023-04-28T08:13:17;101052.03;;;9.78;100.00
11440;BME280;5776;51.814;4.510;2023-04-28T08:15:44;101047.13;;;9.80;100.00
11440;BME280;5776;51.814;4.510;2023-04-28T08:18:09;101049.03;;;9.80;100.00
11440;BME280;5776;51.814;4.510;2023-04-28T08:20:35;101051.16;;;9.83;100.00
11440;BME280;5776;51.814;4.510;2023-04-28T08:23:01;101052.81;;;9.84;100.00
11440;BME280;5776;51.814;4.510;2023-04-28T08:25:28;101053.06;;;9.87;100.00
11440;BME280;5776;51.814;4.510;2023-04-28T08:27:54;101057.41;;;9.88;100.00
11440;BME280;5776;51.814;4.510;2023-04-28T08:30:21;101054.41;;;9.90;100.00
11440;BME280;5776;51.814;4.510;2023-04-28T08:32:47;101054.94;;;9.92;100.00
11440;BME280;5776;51.814;4.510;2023-04-28T08:35:13;101056.84;;;9.91;100.00
11440;BME280;5776;51.814;4.510;2023-04-28T08:37:40;101053.31;;;9.96;100.00
11440;BME280;5776;51.814;4.510;2023-04-28T08:40:06;101051.41;;;9.97;100.00
11440;BME280;5776;51.814;4.510;2023-04-28T08:42:36;101051.09;;;9.98;100.00
11440;BME280;5776;51.814;4.510;2023-04-28T08:45:03;101051.94;;;9.99;100.00
11440;BME280;5776;51.814;4.510;2023-04-28T08:47:35;101046.50;;;9.99;100.00
11440;BME280;5776;51.814;4.510;2023-04-28T08:50:04;101045.16;;;10.01;100.00
11440;BME280;5776;51.814;4.510;2023-04-28T08:52:30;101042.41;;;10.06;100.00
11440;BME280;5776;51.814;4.510;2023-04-28T08:54:58;101049.97;;;10.09;100.00
11440;BME280;5776;51.814;4.510;2023-04-28T08:57:34;101050.50;;;10.11;100.00
11440;BME280;5776;51.814;4.510;2023-04-28T09:00:01;101049.94;;;10.14;100.00
11440;BME280;5776;51.814;4.510;2023-04-28T09:02:27;101045.63;;;10.13;100.00
11440;BME280;5776;51.814;4.510;2023-04-28T09:04:53;101040.16;;;10.19;100.00
11440;BME280;5776;51.814;4.510;2023-04-28T09:07:18;101040.94;;;10.24;100.00
11440;BME280;5776;51.814;4.510;2023-04-28T09:09:44;101036.84;;;10.27;100.00
11440;BME280;5776;51.814;4.510;2023-04-28T09:12:10;101038.50;;;10.28;100.00
11440;BME280;5776;51.814;4.510;2023-04-28T09:14:37;101047.97;;;10.30;100.00
11440;BME280;5776;51.814;4.510;2023-04-28T09:17:13;101035.25;;;10.31;100.00
11440;BME280;5776;51.814;4.510;2023-04-28T09:19:40;101041.72;;;10.35;100.00
11440;BME280;5776;51.814;4.510;2023-04-28T09:22:08;101031.63;;;10.41;100.00
11440;BME280;5776;51.814;4.510;2023-04-28T09:24:36;101025.34;;;10.45;100.00
11440;BME280;5776;51.814;4.510;2023-04-28T09:27:05;101035.66;;;10.48;100.00
11440;BME280;5776;51.814;4.510;2023-04-28T09:29:32;101032.34;;;10.56;100.00
11440;BME280;5776;51.814;4.510;2023-04-28T09:32:15;101041.50;;;10.66;100.00
11440;BME280;5776;51.814;4.510;2023-04-28T09:34:46;101042.03;;;10.68;100.00
11440;BME280;5776;51.814;4.510;2023-04-28T09:37:24;101048.53;;;10.72;100.00
11440;BME280;5776;51.814;4.510;2023-04-28T09:39:53;101034.69;;;10.68;100.00
11440;BME280;5776;51.814;4.510;2023-04-28T09:42:39;101040.94;;;10.69;100.00
11440;BME280;5776;51.814;4.510;2023-04-28T09:45:07;101041.44;;;10.71;100.00
11440;BME280;5776;51.814;4.510;2023-04-28T09:47:36;101041.75;;;10.69;100.00
11440;BME280;5776;51.814;4.510;2023-04-28T09:50:04;101041.00;;;10.64;100.00
11440;BME280;5776;51.814;4.510;2023-04-28T09:52:34;101039.31;;;10.68;100.00
11440;BME280;5776;51.814;4.510;2023-04-28T09:55:02;101050.97;;;10.73;100.00
11440;BME280;5776;51.814;4.510;2023-04-28T09:57:32;101052.81;;;10.78;100.00
11440;BME280;5776;51.814;4.510;2023-04-28T09:59:59;101042.47;;;10.80;100.00
11440;BME280;5776;51.814;4.510;2023-04-28T10:02:27;101047.28;;;10.88;100.00
11440;BME280;5776;51.814;4.510;2023-04-28T10:04:54;101050.53;;;10.90;100.00
11440;BME280;5776;51.814;4.510;2023-04-28T10:07:20;101051.03;;;10.97;100.00
11440;BME280;5776;51.814;4.510;2023-04-28T10:09:47;101046.41;;;10.98;100.00
11440;BME280;5776;51.814;4.510;2023-04-28T10:12:16;101042.59;;;10.99;100.00
11440;BME280;5776;51.814;4.510;2023-04-28T10:14:43;101043.41;;;10.99;100.00
11440;BME280;5776;51.814;4.510;2023-04-28T10:17:09;101050.41;;;11.06;100.00
11440;BME280;5776;51.814;4.510;2023-04-28T10:19:36;101045.53;;;11.02;100.00
11440;BME280;5776;51.814;4.510;2023-04-28T10:22:45;101047.13;;;11.09;100.00
11440;BME280;5776;51.814;4.510;2023-04-28T10:25:25;101061.47;;;11.14;100.00
11440;BME280;5776;51.814;4.510;2023-04-28T10:27:50;101062.34;;;11.10;100.00
11440;BME280;5776;51.814;4.510;2023-04-28T10:30:21;101060.25;;;11.01;100.00
11440;BME280;5776;51.814;4.510;2023-04-28T10:35:44;101065.72;;;10.96;100.00
11440;BME280;5776;51.814;4.510;2023-04-28T10:38:14;101070.25;;;11.06;100.00
11440;BME280;5776;51.814;4.510;2023-04-28T10:40:40;101061.22;;;11.11;100.00
11440;BME280;5776;51.814;4.510;2023-04-28T10:56:16;101052.31;;;11.34;100.00
11440;BME280;5776;51.814;4.510;2023-04-28T10:59:23;101054.19;;;11.39;100.00
11440;BME280;5776;51.814;4.510;2023-04-28T11:01:49;101048.22;;;11.37;100.00
11440;BME280;5776;51.814;4.510;2023-04-28T11:04:15;101063.41;;;11.38;100.00
11440;BME280;5776;51.814;4.510;2023-04-28T11:06:46;101052.84;;;11.36;100.00
11440;BME280;5776;51.814;4.510;2023-04-28T11:12:05;101057.16;;;11.37;100.00
11440;BME280;5776;51.814;4.510;2023-04-28T11:14:33;101047.63;;;11.40;100.00
11440;BME280;5776;51.814;4.510;2023-04-28T11:17:09;101059.63;;;11.39;100.00
11440;BME280;5776;51.814;4.510;2023-04-28T11:19:42;101052.78;;;11.41;100.00
11440;BME280;5776;51.814;4.510;2023-04-28T11:22:20;101060.88;;;11.46;100.00
11440;BME280;5776;51.814;4.510;2023-04-28T11:24:58;101057.59;;;11.50;100.00
11440;BME280;5776;51.814;4.510;2023-04-28T11:27:25;101061.97;;;11.45;100.00
11440;BME280;5776;51.814;4.510;2023-04-28T11:29:52;101070.66;;;11.48;100.00
11440;BME280;5776;51.814;4.510;2023-04-28T11:32:45;101061.44;;;11.43;100.00
11440;BME280;5776;51.814;4.510;2023-04-28T11:35:14;101064.69;;;11.45;100.00
11440;BME280;5776;51.814;4.510;2023-04-28T11:37:40;101070.13;;;11.45;100.00
11440;BME280;5776;51.814;4.510;2023-04-28T11:40:13;101070.94;;;11.46;100.00
11440;BME280;5776;51.814;4.510;2023-04-28T11:42:49;101075.34;;;11.42;100.00
11440;BME280;5776;51.814;4.510;2023-04-28T11:45:15;101076.69;;;11.44;100.00
11440;BME280;5776;51.814;4.510;2023-04-28T11:47:41;101078.81;;;11.48;100.00
11440;BME280;5776;51.814;4.510;2023-04-28T11:50:07;101082.06;;;11.50;100.00
11440;BME280;5776;51.814;4.510;2023-04-28T11:52:33;101079.94;;;11.46;100.00
11440;BME280;5776;51.814;4.510;2023-04-28T11:54:59;101086.44;;;11.45;100.00
11440;BME280;5776;51.814;4.510;2023-04-28T11:57:26;101087.25;;;11.46;100.00
11440;BME280;5776;51.814;4.510;2023-04-28T11:59:53;101091.03;;;11.50;100.00
11440;BME280;5776;51.814;4.510;2023-04-28T12:02:26;101086.41;;;11.51;100.00
11440;BME280;5776;51.814;4.510;2023-04-28T12:04:53;101082.34;;;11.48;100.00
11440;BME280;5776;51.814;4.510;2023-04-28T12:07:19;101084.19;;;11.53;100.00
11440;BME280;5776;51.814;4.510;2023-04-28T12:09:46;101089.13;;;11.51;100.00
11440;BME280;5776;51.814;4.510;2023-04-28T12:12:14;101091.84;;;11.51;100.00
11440;BME280;5776;51.814;4.510;2023-04-28T12:15:20;101087.72;;;11.53;100.00
11440;BME280;5776;51.814;4.510;2023-04-28T12:17:46;101089.66;;;11.53;100.00
11440;BME280;5776;51.814;4.510;2023-04-28T12:20:32;101091.78;;;11.56;100.00
11440;BME280;5776;51.814;4.510;2023-04-28T12:22:59;101093.94;;;11.59;100.00
11440;BME280;5776;51.814;4.510;2023-04-28T12:25:27;101091.22;;;11.59;100.00
11440;BME280;5776;51.814;4.510;2023-04-28T12:28:08;101098.00;;;11.61;100.00
11440;BME280;5776;51.814;4.510;2023-04-28T12:30:36;101105.31;;;11.61;100.00
11440;BME280;5776;51.814;4.510;2023-04-28T12:33:23;101105.28;;;11.66;100.00
11440;BME280;5776;51.814;4.510;2023-04-28T12:35:52;101103.66;;;11.65;100.00
11440;BME280;5776;51.814;4.510;2023-04-28T12:38:22;101102.56;;;11.66;100.00
11440;BME280;5776;51.814;4.510;2023-04-28T12:40:48;101106.91;;;11.67;100.00
11440;BME280;5776;51.814;4.510;2023-04-28T12:43:14;101104.72;;;11.69;100.00
11440;BME280;5776;51.814;4.510;2023-04-28T12:45:40;101107.44;;;11.69;100.00
11440;BME280;5776;51.814;4.510;2023-04-28T12:48:06;101105.53;;;11.70;100.00
11440;BME280;5776;51.814;4.510;2023-04-28T12:50:32;101112.28;;;11.72;100.00
11440;BME280;5776;51.814;4.510;2023-04-28T12:52:58;101113.69;;;11.70;100.00
11440;BME280;5776;51.814;4.510;2023-04-28T12:55:25;101102.00;;;11.69;100.00
11440;BME280;5776;51.814;4.510;2023-04-28T12:57:51;101107.94;;;11.71;100.00
11440;BME280;5776;51.814;4.510;2023-04-28T13:00:17;101109.56;;;11.72;100.00
11440;BME280;5776;51.814;4.510;2023-04-28T13:02:48;101118.25;;;11.74;100.00
11440;BME280;5776;51.814;4.510;2023-04-28T13:05:15;101121.00;;;11.74;100.00
11440;BME280;5776;51.814;4.510;2023-04-28T13:07:41;101127.22;;;11.75;100.00
11440;BME280;5776;51.814;4.510;2023-04-28T13:10:07;101124.50;;;11.75;100.00
11440;BME280;5776;51.814;4.510;2023-04-28T13:12:33;101130.19;;;11.78;100.00
11440;BME280;5776;51.814;4.510;2023-04-28T13:15:03;101126.91;;;11.81;100.00
11440;BME280;5776;51.814;4.510;2023-04-28T13:17:30;101135.03;;;11.86;100.00
11440;BME280;5776;51.814;4.510;2023-04-28T13:19:56;101130.09;;;11.88;100.00